Time;durP1;ratioP1;P1;durP2;ratioP2;P2;SDS_P1;SDS_P2;PMS_P1;PMS_P2;Temp;Humidity;BMP_temperature;BMP_pressure;BME280_temperature;BME280_humidity;BME280_pressure;Samples;Min_cycle;Max_cycle;Signal;HPM_P1;HPM_P2
2022/11/27 00:00:28;;;;;;;29.30;10.23;;;;;;;;;;5006529;28;20042;-90
2022/11/27 00:02:56;;;;;;;28.65;10.45;;;;;;;;;;4995293;28;20053;-89
2022/11/27 00:05:24;;;;;;;30.80;10.80;;;;;;;;;;4989810;28;20046;-90
2022/11/27 00:07:52;;;;;;;27.55;10.52;;;;;;;;;;5024162;28;20046;-90
2022/11/27 00:10:44;;;;;;;26.95;9.98;;;;;;;;;;4993770;28;20196;-90
2022/11/27 00:13:12;;;;;;;33.83;10.20;;;;;;;;;;4991748;28;20454;-90
2022/11/27 00:15:44;;;;;;;34.75;10.77;;;;;;;;;;5011062;28;20041;-89
2022/11/27 00:18:36;;;;;;;27.60;9.63;;;;;;;;;;4994418;28;20499;-89
2022/11/27 00:21:32;;;;;;;29.13;9.43;;;;;;;;;;4994459;28;20042;-89
2022/11/27 00:24:01;;;;;;;29.25;9.65;;;;;;;;;;4991142;28;20112;-90
2022/11/27 00:26:30;;;;;;;30.90;9.52;;;;;;;;;;5009739;28;20049;-90
2022/11/27 00:29:33;;;;;;;23.48;9.07;;;;;;;;;;5008125;28;20054;-91
2022/11/27 00:32:07;;;;;;;25.60;8.05;;;;;;;;;;5011395;28;20050;-91
2022/11/27 00:34:34;;;;;;;29.40;9.50;;;;;;;;;;4992611;28;20156;-90
2022/11/27 00:37:02;;;;;;;31.45;8.80;;;;;;;;;;5011341;28;20120;-90
2022/11/27 00:39:34;;;;;;;23.95;9.00;;;;;;;;;;5008960;28;20073;-91
2022/11/27 00:42:02;;;;;;;26.15;9.18;;;;;;;;;;4991574;28;20487;-90
2022/11/27 00:44:34;;;;;;;26.85;9.55;;;;;;;;;;5024356;28;20108;-91
2022/11/27 00:47:02;;;;;;;22.75;8.32;;;;;;;;;;5009758;28;20050;-90
2022/11/27 00:49:31;;;;;;;24.25;8.57;;;;;;;;;;5008648;28;20061;-90
2022/11/27 00:51:58;;;;;;;24.52;8.82;;;;;;;;;;4992642;28;20057;-91
2022/11/27 00:54:26;;;;;;;22.63;8.80;;;;;;;;;;5005207;28;20060;-91
2022/11/27 00:56:54;;;;;;;20.63;8.52;;;;;;;;;;4988907;28;20057;-91
2022/11/27 00:59:22;;;;;;;20.23;7.35;;;;;;;;;;5011995;28;20049;-91
2022/11/27 01:01:49;;;;;;;20.02;8.50;;;;;;;;;;5009630;28;20069;-91
2022/11/27 01:04:45;;;;;;;22.50;8.70;;;;;;;;;;5008704;28;20045;-93
2022/11/27 01:07:12;;;;;;;30.23;10.65;;;;;;;;;;4998458;28;20491;-93
2022/11/27 01:09:45;;;;;;;22.80;9.15;;;;;;;;;;4981463;28;20111;-94
2022/11/27 01:12:12;;;;;;;29.23;9.35;;;;;;;;;;4994627;28;20058;-93
2022/11/27 01:14:40;;;;;;;23.73;9.40;;;;;;;;;;4998378;28;20058;-93
2022/11/27 01:17:08;;;;;;;22.35;8.88;;;;;;;;;;5010304;28;20064;-92
2022/11/27 01:22:30;;;;;;;21.95;8.38;;;;;;;;;;4992300;28;20137;-91
2022/11/27 01:24:58;;;;;;;22.15;8.50;;;;;;;;;;5008344;28;20045;-90
2022/11/27 01:27:50;;;;;;;23.10;8.18;;;;;;;;;;4992220;28;20065;-89
2022/11/27 01:30:18;;;;;;;29.92;9.23;;;;;;;;;;4976186;28;20049;-90
2022/11/27 01:32:46;;;;;;;26.98;9.43;;;;;;;;;;5008803;28;20531;-90
2022/11/27 01:35:14;;;;;;;28.05;8.98;;;;;;;;;;5024858;28;20040;-90
2022/11/27 01:37:42;;;;;;;25.75;9.63;;;;;;;;;;4991560;28;20053;-90
2022/11/27 01:40:10;;;;;;;21.58;7.95;;;;;;;;;;4993458;28;20058;-90
2022/11/27 01:42:37;;;;;;;28.63;8.55;;;;;;;;;;4992905;28;20052;-89
2022/11/27 01:45:09;;;;;;;21.58;8.93;;;;;;;;;;4992641;28;20060;-89
2022/11/27 01:47:42;;;;;;;26.73;9.15;;;;;;;;;;5009123;28;20045;-90
2022/11/27 01:50:15;;;;;;;22.40;8.70;;;;;;;;;;5010270;28;20322;-90
2022/11/27 01:52:53;;;;;;;24.70;8.60;;;;;;;;;;4991150;28;20115;-90
2022/11/27 01:55:25;;;;;;;20.88;7.63;;;;;;;;;;4989112;28;20111;-91
2022/11/27 01:58:06;;;;;;;18.33;7.43;;;;;;;;;;5008410;28;20045;-90
2022/11/27 02:00:34;;;;;;;18.33;7.68;;;;;;;;;;5007482;28;20104;-90
2022/11/27 02:03:02;;;;;;;17.90;7.53;;;;;;;;;;5008346;28;20058;-90
2022/11/27 02:05:30;;;;;;;19.05;7.47;;;;;;;;;;4992239;28;20137;-91
2022/11/27 02:08:01;;;;;;;19.75;7.55;;;;;;;;;;4995232;28;20046;-91
2022/11/27 02:10:59;;;;;;;23.70;8.10;;;;;;;;;;4993181;28;20072;-91
2022/11/27 02:13:37;;;;;;;22.27;7.20;;;;;;;;;;5010075;28;20050;-90
2022/11/27 02:16:42;;;;;;;16.08;6.00;;;;;;;;;;4993125;28;20050;-91
2022/11/27 02:19:56;;;;;;;23.23;7.35;;;;;;;;;;4992540;28;20202;-90
2022/11/27 02:22:52;;;;;;;17.92;6.47;;;;;;;;;;5012305;28;20049;-91
2022/11/27 02:26:12;;;;;;;13.45;6.57;;;;;;;;;;4998932;28;20072;-91
2022/11/27 02:29:18;;;;;;;20.60;6.50;;;;;;;;;;5009831;28;20125;-91
2022/11/27 02:31:54;;;;;;;22.25;7.13;;;;;;;;;;4953195;28;20074;-91
2022/11/27 02:34:34;;;;;;;20.45;7.38;;;;;;;;;;4954626;28;20057;-91
2022/11/27 02:37:17;;;;;;;27.38;7.03;;;;;;;;;;4967918;28;20049;-91
2022/11/27 02:40:22;;;;;;;15.60;6.43;;;;;;;;;;4949504;28;20051;-91
2022/11/27 02:42:59;;;;;;;24.33;7.32;;;;;;;;;;4882863;29;20128;-90
2022/11/27 02:45:36;;;;;;;18.13;6.90;;;;;;;;;;4900228;29;20060;-91
2022/11/27 02:48:05;;;;;;;23.00;6.60;;;;;;;;;;4904169;29;20131;-91
2022/11/27 02:50:36;;;;;;;18.55;6.25;;;;;;;;;;4897318;29;20052;-91
2022/11/27 02:53:09;;;;;;;17.23;6.28;;;;;;;;;;4893913;29;20147;-91
2022/11/27 02:55:39;;;;;;;21.77;6.72;;;;;;;;;;4901812;29;20439;-91
2022/11/27 02:58:15;;;;;;;17.95;6.07;;;;;;;;;;4899647;29;20515;-91
2022/11/27 03:00:49;;;;;;;15.13;6.22;;;;;;;;;;4886058;29;20079;-90
2022/11/27 03:03:23;;;;;;;25.27;7.07;;;;;;;;;;4884387;29;20063;-91
2022/11/27 03:06:00;;;;;;;16.00;6.53;;;;;;;;;;4903713;29;20112;-91
2022/11/27 03:08:37;;;;;;;16.83;6.45;;;;;;;;;;4891634;29;20127;-91
2022/11/27 03:11:14;;;;;;;17.42;6.82;;;;;;;;;;4911201;29;20147;-91
2022/11/27 03:13:50;;;;;;;19.67;7.28;;;;;;;;;;4910935;29;20554;-91
2022/11/27 03:16:45;;;;;;;15.40;6.85;;;;;;;;;;4897776;29;20639;-91
2022/11/27 03:19:21;;;;;;;22.10;7.90;;;;;;;;;;4971058;28;20112;-90
2022/11/27 03:21:58;;;;;;;22.27;8.18;;;;;;;;;;5026943;28;20085;-91
2022/11/27 03:24:27;;;;;;;19.95;8.13;;;;;;;;;;4978386;28;20377;-91
2022/11/27 03:27:00;;;;;;;23.08;8.68;;;;;;;;;;5010905;28;20515;-91
2022/11/27 03:29:58;;;;;;;20.30;8.32;;;;;;;;;;5012862;28;20046;-91
2022/11/27 03:32:27;;;;;;;19.08;7.00;;;;;;;;;;5012337;28;20042;-91
2022/11/27 03:34:56;;;;;;;22.20;6.68;;;;;;;;;;4992161;28;20082;-90
2022/11/27 03:37:24;;;;;;;18.83;7.05;;;;;;;;;;4991997;28;20112;-91
2022/11/27 03:40:18;;;;;;;21.63;7.53;;;;;;;;;;4994785;28;20046;-91
2022/11/27 03:43:04;;;;;;;17.20;6.90;;;;;;;;;;5012029;28;20053;-91
2022/11/27 03:46:15;;;;;;;19.83;7.78;;;;;;;;;;4995532;28;20092;-90
2022/11/27 03:49:18;;;;;;;20.15;7.95;;;;;;;;;;4955333;28;20063;-90
2022/11/27 03:52:01;;;;;;;17.02;7.18;;;;;;;;;;4934148;29;20075;-91
2022/11/27 03:54:42;;;;;;;14.18;6.60;;;;;;;;;;4946525;28;20062;-90
2022/11/27 03:57:35;;;;;;;22.73;6.55;;;;;;;;;;4947979;28;20059;-90
2022/11/27 04:00:07;;;;;;;16.77;6.00;;;;;;;;;;4940251;28;20056;-91
2022/11/27 04:02:45;;;;;;;19.98;7.10;;;;;;;;;;4939848;28;20105;-91
2022/11/27 04:05:19;;;;;;;20.75;6.78;;;;;;;;;;4917401;28;20039;-90
2022/11/27 04:07:46;;;;;;;20.25;7.07;;;;;;;;;;4945553;28;20055;-91
2022/11/27 04:10:14;;;;;;;15.20;6.65;;;;;;;;;;4935974;29;20107;-91
2022/11/27 04:12:46;;;;;;;19.42;7.18;;;;;;;;;;4928620;29;20714;-90
2022/11/27 04:15:14;;;;;;;15.90;7.80;;;;;;;;;;4948342;28;20071;-91
2022/11/27 04:17:42;;;;;;;19.33;6.53;;;;;;;;;;4948656;28;20054;-90
2022/11/27 04:20:12;;;;;;;17.50;6.80;;;;;;;;;;4948794;28;20548;-91
2022/11/27 04:22:40;;;;;;;19.52;7.00;;;;;;;;;;4951447;28;20137;-90
2022/11/27 04:25:12;;;;;;;16.73;6.75;;;;;;;;;;4967710;28;20404;-91
2022/11/27 04:27:40;;;;;;;15.48;7.28;;;;;;;;;;4996670;28;20052;-91
2022/11/27 04:30:08;;;;;;;19.30;7.75;;;;;;;;;;4981960;28;20053;-90
2022/11/27 04:32:36;;;;;;;21.73;9.05;;;;;;;;;;5014045;28;20128;-91
2022/11/27 04:35:04;;;;;;;23.95;9.20;;;;;;;;;;5014489;28;20054;-90
2022/11/27 04:37:58;;;;;;;30.50;9.52;;;;;;;;;;4993558;28;20038;-90
2022/11/27 04:40:26;;;;;;;22.70;8.35;;;;;;;;;;4998830;28;20125;-90
2022/11/27 04:42:54;;;;;;;20.52;8.57;;;;;;;;;;5014157;28;20483;-91
2022/11/27 04:45:22;;;;;;;21.15;9.45;;;;;;;;;;4995159;28;20104;-91
2022/11/27 04:47:50;;;;;;;23.67;8.80;;;;;;;;;;5012245;28;20046;-90
2022/11/27 04:50:18;;;;;;;18.83;8.93;;;;;;;;;;5014290;28;20046;-91
2022/11/27 04:53:17;;;;;;;24.33;8.98;;;;;;;;;;5013359;28;20514;-90
2022/11/27 04:55:44;;;;;;;23.52;8.07;;;;;;;;;;5003702;28;20058;-90
2022/11/27 04:58:12;;;;;;;20.02;9.15;;;;;;;;;;5015769;28;20074;-91
2022/11/27 05:00:44;;;;;;;19.20;8.75;;;;;;;;;;4996707;28;20061;-91
2022/11/27 05:03:12;;;;;;;26.38;9.35;;;;;;;;;;4993816;28;20049;-91
2022/11/27 05:05:40;;;;;;;23.40;9.25;;;;;;;;;;5011252;28;20049;-91
2022/11/27 05:08:12;;;;;;;24.95;10.05;;;;;;;;;;5005970;28;20125;-90
2022/11/27 05:10:45;;;;;;;23.80;10.85;;;;;;;;;;4997721;28;20079;-91
2022/11/27 05:13:14;;;;;;;23.58;9.52;;;;;;;;;;4996930;28;20054;-90
2022/11/27 05:15:42;;;;;;;24.63;10.75;;;;;;;;;;5027187;28;20058;-91
2022/11/27 05:18:09;;;;;;;19.75;9.68;;;;;;;;;;5027617;28;20143;-91
2022/11/27 05:20:42;;;;;;;19.55;9.60;;;;;;;;;;4981783;28;20049;-90
2022/11/27 05:23:10;;;;;;;21.83;9.30;;;;;;;;;;5029305;28;20049;-91
2022/11/27 05:25:38;;;;;;;24.42;10.38;;;;;;;;;;5013983;28;20050;-91
2022/11/27 05:28:05;;;;;;;24.02;9.82;;;;;;;;;;5011339;28;20084;-91
2022/11/27 05:30:34;;;;;;;23.27;10.18;;;;;;;;;;5011297;28;20120;-90
2022/11/27 05:33:02;;;;;;;28.10;10.80;;;;;;;;;;4990989;28;20152;-91
2022/11/27 05:35:30;;;;;;;23.25;9.88;;;;;;;;;;5013436;28;20052;-91
2022/11/27 05:37:58;;;;;;;23.95;11.32;;;;;;;;;;5010581;28;20718;-91
2022/11/27 05:40:26;;;;;;;29.65;11.32;;;;;;;;;;5012110;28;20046;-90
2022/11/27 05:42:53;;;;;;;28.70;10.82;;;;;;;;;;4994694;28;20056;-90
2022/11/27 05:45:22;;;;;;;24.35;10.50;;;;;;;;;;4976977;28;20137;-91
2022/11/27 05:48:25;;;;;;;26.23;9.15;;;;;;;;;;5012186;28;20050;-91
2022/11/27 05:50:51;;;;;;;23.60;10.07;;;;;;;;;;5009977;28;20053;-91
2022/11/27 05:53:19;;;;;;;29.05;10.15;;;;;;;;;;5013347;28;20053;-91
2022/11/27 05:56:02;;;;;;;24.83;10.13;;;;;;;;;;5012198;28;20132;-90
2022/11/27 05:58:54;;;;;;;21.85;9.52;;;;;;;;;;5010206;28;20050;-91
2022/11/27 06:01:22;;;;;;;20.75;9.55;;;;;;;;;;4995295;28;20065;-91
2022/11/27 06:04:14;;;;;;;22.77;9.63;;;;;;;;;;5024286;28;20034;-91
2022/11/27 06:07:07;;;;;;;24.27;8.50;;;;;;;;;;4994870;28;20045;-91
2022/11/27 06:09:39;;;;;;;29.27;10.55;;;;;;;;;;5023965;28;20809;-91
2022/11/27 06:12:06;;;;;;;22.17;9.07;;;;;;;;;;5006255;28;20104;-91
2022/11/27 06:14:34;;;;;;;23.75;9.35;;;;;;;;;;4995563;28;20108;-90
2022/11/27 06:17:02;;;;;;;20.67;8.68;;;;;;;;;;4994613;28;20141;-91
2022/11/27 06:19:30;;;;;;;21.13;9.63;;;;;;;;;;4995531;28;20112;-90
2022/11/27 06:24:50;;;;;;;21.50;9.07;;;;;;;;;;5011962;28;20057;-90
2022/11/27 06:27:18;;;;;;;24.23;9.25;;;;;;;;;;4978289;28;20759;-91
2022/11/27 06:29:46;;;;;;;23.90;9.60;;;;;;;;;;4988957;28;20112;-91
2022/11/27 06:32:14;;;;;;;22.52;9.40;;;;;;;;;;4992628;28;20062;-91
2022/11/27 06:35:30;;;;;;;23.58;8.88;;;;;;;;;;5008392;28;20060;-90
2022/11/27 06:38:03;;;;;;;20.05;9.55;;;;;;;;;;4992895;28;20042;-91
2022/11/27 06:40:37;;;;;;;25.63;9.35;;;;;;;;;;5010450;28;20053;-91
2022/11/27 06:43:03;;;;;;;18.88;8.63;;;;;;;;;;5010153;28;20057;-91
2022/11/27 06:45:32;;;;;;;23.45;9.48;;;;;;;;;;5023251;28;20064;-91
2022/11/27 06:48:00;;;;;;;23.27;8.90;;;;;;;;;;5006067;28;20050;-90
2022/11/27 06:50:28;;;;;;;23.58;9.73;;;;;;;;;;4994346;28;20645;-91
2022/11/27 06:52:55;;;;;;;24.10;9.23;;;;;;;;;;5010150;28;20108;-91
2022/11/27 06:55:23;;;;;;;23.70;9.63;;;;;;;;;;4990333;28;20060;-90
2022/11/27 06:57:51;;;;;;;24.45;9.38;;;;;;;;;;5010540;28;20054;-90
2022/11/27 07:00:19;;;;;;;28.27;10.27;;;;;;;;;;4994069;28;20128;-91
2022/11/27 07:03:12;;;;;;;22.33;9.68;;;;;;;;;;5011876;28;20044;-91
2022/11/27 07:05:44;;;;;;;25.02;9.05;;;;;;;;;;4998030;28;20077;-91
2022/11/27 07:08:11;;;;;;;24.35;9.32;;;;;;;;;;5008767;28;20046;-91
2022/11/27 07:10:39;;;;;;;26.60;9.50;;;;;;;;;;5010762;28;20058;-91
2022/11/27 07:13:17;;;;;;;21.23;9.57;;;;;;;;;;5009018;28;20054;-91
2022/11/27 07:15:44;;;;;;;21.33;8.60;;;;;;;;;;5007888;28;20049;-91
2022/11/27 07:18:12;;;;;;;27.48;9.30;;;;;;;;;;4993357;28;20058;-91
2022/11/27 07:20:39;;;;;;;24.83;10.93;;;;;;;;;;5002594;28;20076;-90
2022/11/27 07:23:13;;;;;;;23.63;10.52;;;;;;;;;;5007630;28;20046;-89
2022/11/27 07:25:39;;;;;;;23.63;10.32;;;;;;;;;;5009042;28;20049;-90
2022/11/27 07:28:32;;;;;;;27.38;10.43;;;;;;;;;;5006608;28;20053;-90
2022/11/27 07:31:00;;;;;;;20.63;8.63;;;;;;;;;;4989465;28;20050;-90
2022/11/27 07:33:34;;;;;;;21.17;8.57;;;;;;;;;;5007249;28;20042;-90
2022/11/27 07:36:05;;;;;;;28.30;9.73;;;;;;;;;;4992474;28;20061;-91
2022/11/27 07:38:34;;;;;;;23.35;9.68;;;;;;;;;;5010517;28;20042;-91
2022/11/27 07:41:02;;;;;;;24.83;8.93;;;;;;;;;;4999224;28;20051;-91
2022/11/27 07:43:31;;;;;;;18.27;8.65;;;;;;;;;;5007471;28;20559;-90
2022/11/27 07:46:55;;;;;;;19.17;7.43;;;;;;;;;;5001944;28;20045;-91
2022/11/27 07:49:28;;;;;;;22.90;9.38;;;;;;;;;;5009980;28;20415;-90
2022/11/27 07:51:55;;;;;;;20.15;8.63;;;;;;;;;;4995005;28;20051;-91
2022/11/27 07:54:29;;;;;;;25.33;9.27;;;;;;;;;;4991301;28;20057;-89
2022/11/27 07:56:56;;;;;;;21.20;8.80;;;;;;;;;;5012319;28;20407;-89
2022/11/27 07:59:24;;;;;;;20.38;8.38;;;;;;;;;;5010949;28;20049;-89
2022/11/27 08:02:16;;;;;;;24.42;8.15;;;;;;;;;;5001132;28;20515;-88
2022/11/27 08:04:48;;;;;;;18.10;7.15;;;;;;;;;;4990000;28;20054;-88
2022/11/27 08:07:16;;;;;;;18.90;8.07;;;;;;;;;;5006765;28;20042;-87
2022/11/27 08:09:44;;;;;;;22.85;8.82;;;;;;;;;;5001707;28;20827;-87
2022/11/27 08:12:11;;;;;;;19.33;7.57;;;;;;;;;;5007496;28;20136;-86
2022/11/27 08:14:40;;;;;;;22.42;9.30;;;;;;;;;;5008023;28;20053;-87
2022/11/27 08:17:34;;;;;;;21.80;8.60;;;;;;;;;;5003691;28;20052;-86
2022/11/27 08:20:06;;;;;;;22.90;8.55;;;;;;;;;;5005216;28;20403;-87
2022/11/27 08:23:00;;;;;;;18.63;8.00;;;;;;;;;;5005498;28;20054;-86
2022/11/27 08:25:34;;;;;;;16.60;7.63;;;;;;;;;;4989198;28;20070;-88
2022/11/27 08:28:07;;;;;;;21.75;8.07;;;;;;;;;;5003180;28;20096;-89
2022/11/27 08:30:34;;;;;;;19.52;7.97;;;;;;;;;;5006156;28;20049;-89
2022/11/27 08:33:02;;;;;;;18.08;7.18;;;;;;;;;;5006023;28;20878;-89
2022/11/27 08:35:54;;;;;;;14.05;7.00;;;;;;;;;;5022971;28;20128;-89
2022/11/27 08:39:09;;;;;;;25.63;8.07;;;;;;;;;;5009487;28;20049;-88
2022/11/27 08:41:38;;;;;;;23.25;8.25;;;;;;;;;;4992174;28;20133;-89
2022/11/27 08:44:05;;;;;;;19.88;8.07;;;;;;;;;;5009334;28;20092;-88
2022/11/27 08:46:36;;;;;;;18.20;7.68;;;;;;;;;;5022266;28;20066;-88
2022/11/27 08:49:08;;;;;;;20.10;7.57;;;;;;;;;;5007339;28;20046;-87
2022/11/27 08:51:36;;;;;;;20.30;7.13;;;;;;;;;;4998570;28;20526;-87
2022/11/27 08:54:04;;;;;;;17.65;7.32;;;;;;;;;;5008582;28;20077;-88
2022/11/27 08:56:55;;;;;;;18.65;6.80;;;;;;;;;;5008788;28;20050;-88
2022/11/27 08:59:24;;;;;;;18.75;6.93;;;;;;;;;;5009118;28;20069;-88
2022/11/27 09:01:57;;;;;;;18.13;8.05;;;;;;;;;;5007275;28;20057;-89
2022/11/27 09:04:24;;;;;;;17.25;6.95;;;;;;;;;;5008080;28;20046;-88
2022/11/27 09:06:52;;;;;;;15.80;6.70;;;;;;;;;;5006848;28;20050;-88
2022/11/27 09:09:26;;;;;;;17.83;7.13;;;;;;;;;;5008222;28;20439;-90
2022/11/27 09:12:44;;;;;;;15.82;6.88;;;;;;;;;;5022192;28;20045;-90
2022/11/27 09:15:12;;;;;;;18.45;7.60;;;;;;;;;;5022185;28;20137;-89
2022/11/27 09:17:40;;;;;;;16.13;6.97;;;;;;;;;;4991375;28;20116;-90
2022/11/27 09:20:09;;;;;;;16.75;6.95;;;;;;;;;;4993898;28;20168;-91
2022/11/27 09:22:38;;;;;;;19.05;7.57;;;;;;;;;;5002719;28;20073;-90
2022/11/27 09:25:06;;;;;;;20.50;6.68;;;;;;;;;;5008709;28;20053;-91
2022/11/27 09:27:43;;;;;;;15.75;6.15;;;;;;;;;;5001495;28;20376;-92
2022/11/27 09:30:10;;;;;;;14.57;6.30;;;;;;;;;;4988704;28;20062;-91
2022/11/27 09:32:38;;;;;;;17.92;7.35;;;;;;;;;;4974193;28;20057;-91
2022/11/27 09:35:06;;;;;;;14.13;6.30;;;;;;;;;;5025643;28;20561;-90
2022/11/27 09:37:34;;;;;;;13.13;6.40;;;;;;;;;;5009728;28;20140;-91
2022/11/27 09:40:26;;;;;;;17.02;6.53;;;;;;;;;;5005789;28;20484;-91
2022/11/27 09:43:03;;;;;;;13.35;6.32;;;;;;;;;;4993696;28;20056;-91
2022/11/27 09:45:30;;;;;;;15.55;6.60;;;;;;;;;;5025121;28;20057;-92
2022/11/27 09:48:03;;;;;;;16.50;6.40;;;;;;;;;;4987706;28;20503;-92
2022/11/27 09:50:40;;;;;;;15.48;6.45;;;;;;;;;;5013926;28;20053;-94
2022/11/27 09:53:17;;;;;;;20.95;7.15;;;;;;;;;;5003950;28;20080;-91
2022/11/27 09:55:53;;;;;;;15.55;6.75;;;;;;;;;;5013291;28;20050;-93
2022/11/27 09:58:44;;;;;;;18.85;6.88;;;;;;;;;;4990403;28;20053;-92
2022/11/27 10:01:36;;;;;;;18.98;6.35;;;;;;;;;;5020456;28;20061;-94
2022/11/27 10:04:28;;;;;;;17.92;6.72;;;;;;;;;;5022433;28;20136;-92
2022/11/27 10:08:29;;;;;;;13.45;6.15;;;;;;;;;;5002766;28;20050;-93
2022/11/27 10:11:08;;;;;;;14.43;6.13;;;;;;;;;;4913314;29;20063;-92
2022/11/27 10:14:08;;;;;;;13.10;6.47;;;;;;;;;;4883409;29;20059;-91
2022/11/27 10:17:02;;;;;;;13.57;6.10;;;;;;;;;;4901856;29;20115;-92
2022/11/27 10:19:43;;;;;;;18.10;6.60;;;;;;;;;;4911811;29;20051;-91
2022/11/27 10:22:27;;;;;;;20.27;7.15;;;;;;;;;;4914117;29;20067;-92
2022/11/27 10:25:16;;;;;;;16.83;6.75;;;;;;;;;;4903919;29;20503;-92
2022/11/27 10:28:36;;;;;;;19.50;7.60;;;;;;;;;;4924425;29;20807;-92
2022/11/27 10:31:35;;;;;;;12.07;6.43;;;;;;;;;;4897373;29;20066;-92
2022/11/27 10:34:14;;;;;;;17.05;7.20;;;;;;;;;;4905749;29;20503;-92
2022/11/27 10:36:46;;;;;;;16.77;7.07;;;;;;;;;;4908046;29;20088;-92
2022/11/27 10:39:47;;;;;;;20.40;7.40;;;;;;;;;;4929136;29;20044;-90
2022/11/27 10:42:49;;;;;;;17.05;6.63;;;;;;;;;;4854326;29;20078;-91
2022/11/27 10:45:37;;;;;;;13.65;6.78;;;;;;;;;;4826455;29;20062;-91
2022/11/27 10:48:06;;;;;;;18.85;6.82;;;;;;;;;;4873491;29;20404;-92
2022/11/27 10:50:34;;;;;;;15.85;6.80;;;;;;;;;;4848154;29;20053;-90
2022/11/27 10:53:06;;;;;;;14.77;6.38;;;;;;;;;;4860315;29;20113;-92
2022/11/27 10:56:01;;;;;;;14.52;6.65;;;;;;;;;;4855393;29;20412;-92
2022/11/27 10:58:35;;;;;;;13.70;5.43;;;;;;;;;;4868440;29;20061;-90
2022/11/27 11:01:10;;;;;;;16.13;6.35;;;;;;;;;;4870869;29;20060;-91
2022/11/27 11:03:38;;;;;;;23.83;7.72;;;;;;;;;;4873954;29;20140;-91
2022/11/27 11:06:13;;;;;;;19.15;7.28;;;;;;;;;;4842781;29;20061;-91
2022/11/27 11:09:23;;;;;;;19.05;7.50;;;;;;;;;;4856412;29;20060;-91
2022/11/27 11:12:08;;;;;;;15.48;6.50;;;;;;;;;;4805654;29;20186;-91
2022/11/27 11:15:10;;;;;;;19.55;6.68;;;;;;;;;;4803633;29;20046;-91
2022/11/27 11:17:39;;;;;;;15.35;7.40;;;;;;;;;;4821013;29;20062;-91
2022/11/27 11:20:22;;;;;;;19.95;8.88;;;;;;;;;;4844299;29;20152;-92
2022/11/27 11:22:50;;;;;;;15.65;6.78;;;;;;;;;;4902490;29;20052;-92
2022/11/27 11:25:20;;;;;;;16.30;7.18;;;;;;;;;;4911902;29;20052;-95
2022/11/27 11:27:49;;;;;;;20.60;6.80;;;;;;;;;;4902144;29;20163;-95
2022/11/27 11:30:27;;;;;;;20.27;6.50;;;;;;;;;;4934847;29;20048;-94
2022/11/27 11:33:02;;;;;;;18.30;6.95;;;;;;;;;;4930377;29;20064;-96
2022/11/27 11:36:05;;;;;;;20.23;6.90;;;;;;;;;;4911171;29;20240;-93
2022/11/27 11:38:34;;;;;;;16.13;6.57;;;;;;;;;;4907985;29;20418;-87
2022/11/27 11:41:08;;;;;;;19.42;7.50;;;;;;;;;;4910790;29;20506;-93
2022/11/27 11:43:36;;;;;;;19.55;6.72;;;;;;;;;;4897270;29;20200;-93
2022/11/27 11:46:27;;;;;;;13.48;6.20;;;;;;;;;;4909688;29;20059;-90
2022/11/27 11:49:26;;;;;;;15.52;6.40;;;;;;;;;;4985132;28;20050;-92
2022/11/27 11:52:10;;;;;;;14.57;6.35;;;;;;;;;;4934063;28;20165;-90
2022/11/27 11:55:04;;;;;;;15.50;7.03;;;;;;;;;;4968782;28;20058;-92
2022/11/27 11:57:37;;;;;;;11.85;6.60;;;;;;;;;;4895542;29;20056;-90
2022/11/27 12:00:14;;;;;;;17.55;6.82;;;;;;;;;;4908140;29;20079;-94
2022/11/27 12:03:18;;;;;;;14.38;6.25;;;;;;;;;;4927845;29;20048;-94
2022/11/27 12:06:07;;;;;;;14.35;6.78;;;;;;;;;;4881495;29;20060;-93
2022/11/27 12:08:48;;;;;;;14.05;6.88;;;;;;;;;;4909541;29;20084;-94
2022/11/27 12:11:22;;;;;;;19.27;7.07;;;;;;;;;;4898124;29;20093;-91
2022/11/27 12:14:28;;;;;;;17.30;7.30;;;;;;;;;;4912692;29;20060;-90
2022/11/27 12:17:13;;;;;;;20.15;7.28;;;;;;;;;;4912247;29;20060;-91
2022/11/27 12:20:04;;;;;;;12.30;6.47;;;;;;;;;;4908276;29;20059;-91
2022/11/27 12:22:36;;;;;;;14.75;5.90;;;;;;;;;;4912166;29;20048;-91
2022/11/27 12:25:28;;;;;;;17.52;6.47;;;;;;;;;;4897794;29;20101;-91
2022/11/27 12:28:17;;;;;;;14.90;6.55;;;;;;;;;;4897557;29;20072;-91
2022/11/27 12:31:06;;;;;;;14.52;6.47;;;;;;;;;;4896212;29;20052;-91
2022/11/27 12:33:45;;;;;;;18.08;6.88;;;;;;;;;;4884561;28;20242;-88
2022/11/27 12:36:53;;;;;;;15.60;6.97;;;;;;;;;;5009615;28;20061;-88
2022/11/27 12:39:54;;;;;;;17.50;7.28;;;;;;;;;;4994254;28;20062;-88
2022/11/27 12:42:56;;;;;;;13.68;6.95;;;;;;;;;;5012144;28;20045;-87
2022/11/27 12:45:37;;;;;;;17.92;6.53;;;;;;;;;;5008252;28;20069;-88
2022/11/27 12:48:24;;;;;;;16.00;6.53;;;;;;;;;;4992605;28;20049;-88
2022/11/27 12:51:05;;;;;;;15.50;6.03;;;;;;;;;;5007585;28;20523;-85
2022/11/27 12:53:37;;;;;;;14.27;6.65;;;;;;;;;;5023929;28;20096;-89
2022/11/27 12:56:36;;;;;;;15.45;6.32;;;;;;;;;;5019814;28;20120;-90
2022/11/27 12:59:34;;;;;;;14.98;6.03;;;;;;;;;;4995025;28;20116;-89
2022/11/27 13:02:07;;;;;;;12.55;6.40;;;;;;;;;;5010195;28;20064;-89
2022/11/27 13:04:46;;;;;;;18.13;7.30;;;;;;;;;;5006109;28;20042;-89
2022/11/27 13:07:53;;;;;;;15.95;6.45;;;;;;;;;;4989786;28;20054;-88
2022/11/27 13:10:41;;;;;;;14.20;6.47;;;;;;;;;;4947017;28;20877;-89
2022/11/27 13:13:34;;;;;;;17.60;6.43;;;;;;;;;;4947375;28;20054;-90
2022/11/27 13:16:04;;;;;;;14.80;6.75;;;;;;;;;;4972963;28;20412;-89
2022/11/27 13:18:42;;;;;;;13.27;7.03;;;;;;;;;;4958652;28;20142;-90
2022/11/27 13:21:16;;;;;;;17.40;6.95;;;;;;;;;;4952368;28;20054;-91
2022/11/27 13:23:44;;;;;;;15.77;6.35;;;;;;;;;;4968040;28;20054;-92
2022/11/27 13:26:17;;;;;;;15.80;7.38;;;;;;;;;;4961606;28;20082;-91
2022/11/27 13:28:56;;;;;;;16.40;7.78;;;;;;;;;;4973587;28;20102;-89
2022/11/27 13:31:36;;;;;;;21.42;7.32;;;;;;;;;;4940198;28;20051;-88
2022/11/27 13:34:20;;;;;;;12.85;7.32;;;;;;;;;;4969386;28;20070;-89
2022/11/27 13:37:27;;;;;;;13.13;6.65;;;;;;;;;;4969595;28;20161;-89
2022/11/27 13:40:06;;;;;;;15.05;6.53;;;;;;;;;;4950458;28;20055;-89
2022/11/27 13:43:04;;;;;;;19.13;6.70;;;;;;;;;;4975875;28;20456;-89
2022/11/27 13:46:10;;;;;;;12.77;6.53;;;;;;;;;;4959518;28;20050;-89
2022/11/27 13:48:45;;;;;;;14.05;6.93;;;;;;;;;;4993893;28;20050;-89
2022/11/27 13:54:19;;;;;;;13.20;6.18;;;;;;;;;;5008844;28;20482;-92
2022/11/27 13:57:19;;;;;;;12.70;6.15;;;;;;;;;;5006551;28;20045;-94
2022/11/27 14:00:07;;;;;;;13.80;6.32;;;;;;;;;;4986491;28;20060;-94
2022/11/27 14:02:48;;;;;;;14.18;6.28;;;;;;;;;;5002018;28;20136;-91
2022/11/27 14:05:38;;;;;;;17.52;5.43;;;;;;;;;;4992510;28;20522;-93
2022/11/27 14:08:37;;;;;;;15.20;6.70;;;;;;;;;;4982080;28;20045;-93
2022/11/27 14:11:12;;;;;;;13.63;6.00;;;;;;;;;;4966900;28;20057;-93
2022/11/27 14:13:50;;;;;;;13.48;5.95;;;;;;;;;;4992794;28;20058;-90
2022/11/27 14:17:07;;;;;;;15.38;6.22;;;;;;;;;;4993508;28;20412;-90
2022/11/27 14:20:29;;;;;;;12.40;5.68;;;;;;;;;;5022247;28;20422;-87
2022/11/27 14:22:58;;;;;;;11.38;6.28;;;;;;;;;;5006850;28;20054;-87
2022/11/27 14:26:31;;;;;;;18.00;6.47;;;;;;;;;;4997820;28;20046;-87
2022/11/27 14:29:00;;;;;;;12.88;6.72;;;;;;;;;;4992049;28;20046;-89
2022/11/27 14:31:30;;;;;;;13.93;6.65;;;;;;;;;;5009222;28;20136;-89
2022/11/27 14:34:29;;;;;;;11.93;6.72;;;;;;;;;;5008903;28;20054;-89
2022/11/27 14:36:56;;;;;;;16.58;6.68;;;;;;;;;;5006844;28;20057;-89
2022/11/27 14:39:26;;;;;;;14.27;7.10;;;;;;;;;;4993643;28;20045;-89
2022/11/27 14:42:04;;;;;;;16.33;6.43;;;;;;;;;;4994673;28;20404;-89
2022/11/27 14:44:32;;;;;;;13.57;6.70;;;;;;;;;;4991386;28;20542;-90
2022/11/27 14:47:24;;;;;;;19.35;6.97;;;;;;;;;;5022642;28;20049;-90
2022/11/27 14:50:17;;;;;;;13.15;6.75;;;;;;;;;;5008547;28;20042;-90
2022/11/27 14:52:54;;;;;;;15.43;7.30;;;;;;;;;;4992220;28;20060;-89
2022/11/27 14:55:22;;;;;;;13.00;7.28;;;;;;;;;;4974132;28;20093;-89
2022/11/27 14:57:50;;;;;;;12.65;5.97;;;;;;;;;;4993524;28;20062;-90
2022/11/27 15:00:22;;;;;;;15.73;7.47;;;;;;;;;;4989874;28;20042;-87
2022/11/27 15:03:16;;;;;;;13.50;6.50;;;;;;;;;;5004625;28;20092;-87
2022/11/27 15:06:18;;;;;;;13.35;6.53;;;;;;;;;;5006295;28;20151;-89
2022/11/27 15:09:18;;;;;;;13.45;6.90;;;;;;;;;;4995670;28;20049;-90
2022/11/27 15:12:27;;;;;;;15.60;6.55;;;;;;;;;;5003940;28;20495;-90
2022/11/27 15:14:59;;;;;;;16.88;6.70;;;;;;;;;;5006327;28;20046;-88
2022/11/27 15:17:57;;;;;;;12.38;6.47;;;;;;;;;;5017970;28;20481;-86
2022/11/27 15:20:41;;;;;;;12.45;7.03;;;;;;;;;;4990337;28;20141;-87
2022/11/27 15:23:20;;;;;;;14.18;6.78;;;;;;;;;;4989842;28;20502;-88
2022/11/27 15:26:02;;;;;;;16.23;6.57;;;;;;;;;;5006726;28;20129;-88
2022/11/27 15:28:42;;;;;;;13.18;7.38;;;;;;;;;;5005743;28;20129;-87
2022/11/27 15:31:36;;;;;;;15.38;7.78;;;;;;;;;;4986593;28;20038;-85
2022/11/27 15:34:13;;;;;;;13.95;6.50;;;;;;;;;;5006589;28;20050;-86
2022/11/27 15:36:46;;;;;;;13.50;7.35;;;;;;;;;;5006559;28;20138;-87
2022/11/27 15:39:50;;;;;;;15.35;6.97;;;;;;;;;;4989774;28;20455;-87
2022/11/27 15:42:27;;;;;;;15.40;7.53;;;;;;;;;;5008298;28;20050;-87
2022/11/27 15:45:20;;;;;;;16.02;7.22;;;;;;;;;;5008289;28;20242;-86